sensor_id;sensor_type;location;lat;lon;timestamp;P1;durP1;ratioP1;P2;durP2;ratioP2
69837;SDS011;57135;51.992;4.476;2022-08-30T00:01:53;3.25;;;3.25;;
69837;SDS011;57135;51.992;4.476;2022-08-30T00:04:18;3.25;;;3.25;;
69837;SDS011;57135;51.992;4.476;2022-08-30T00:06:44;3.47;;;3.47;;
69837;SDS011;57135;51.992;4.476;2022-08-30T00:09:11;3.24;;;3.24;;
69837;SDS011;57135;51.992;4.476;2022-08-30T00:11:36;3.10;;;3.10;;
69837;SDS011;57135;51.992;4.476;2022-08-30T00:14:02;3.13;;;3.13;;
69837;SDS011;57135;51.992;4.476;2022-08-30T00:16:28;3.30;;;3.30;;
69837;SDS011;57135;51.992;4.476;2022-08-30T00:18:53;3.09;;;3.09;;
69837;SDS011;57135;51.992;4.476;2022-08-30T00:21:20;3.28;;;3.28;;
69837;SDS011;57135;51.992;4.476;2022-08-30T00:23:46;3.21;;;3.20;;
69837;SDS011;57135;51.992;4.476;2022-08-30T00:26:11;3.34;;;3.33;;
69837;SDS011;57135;51.992;4.476;2022-08-30T00:28:36;3.12;;;3.10;;
69837;SDS011;57135;51.992;4.476;2022-08-30T00:31:02;3.15;;;3.13;;
69837;SDS011;57135;51.992;4.476;2022-08-30T00:33:28;3.39;;;3.36;;
69837;SDS011;57135;51.992;4.476;2022-08-30T00:35:54;3.30;;;3.24;;
69837;SDS011;57135;51.992;4.476;2022-08-30T00:38:20;3.26;;;3.23;;
69837;SDS011;57135;51.992;4.476;2022-08-30T00:40:48;3.23;;;3.22;;
69837;SDS011;57135;51.992;4.476;2022-08-30T00:43:28;3.46;;;3.44;;
69837;SDS011;57135;51.992;4.476;2022-08-30T00:45:55;3.36;;;3.33;;
69837;SDS011;57135;51.992;4.476;2022-08-30T00:48:21;3.22;;;3.21;;
69837;SDS011;57135;51.992;4.476;2022-08-30T00:50:48;3.35;;;3.34;;
69837;SDS011;57135;51.992;4.476;2022-08-30T00:53:21;3.33;;;3.32;;
69837;SDS011;57135;51.992;4.476;2022-08-30T00:55:50;3.38;;;3.35;;
69837;SDS011;57135;51.992;4.476;2022-08-30T00:58:19;3.65;;;3.61;;
69837;SDS011;57135;51.992;4.476;2022-08-30T01:00:51;3.49;;;3.48;;
69837;SDS011;57135;51.992;4.476;2022-08-30T01:03:19;3.56;;;3.55;;
69837;SDS011;57135;51.992;4.476;2022-08-30T01:05:47;3.75;;;3.75;;
69837;SDS011;57135;51.992;4.476;2022-08-30T01:08:14;3.77;;;3.76;;
69837;SDS011;57135;51.992;4.476;2022-08-30T01:10:39;3.74;;;3.73;;
69837;SDS011;57135;51.992;4.476;2022-08-30T01:13:06;3.69;;;3.67;;
69837;SDS011;57135;51.992;4.476;2022-08-30T01:15:33;3.74;;;3.72;;
69837;SDS011;57135;51.992;4.476;2022-08-30T01:18:00;4.03;;;3.99;;
69837;SDS011;57135;51.992;4.476;2022-08-30T01:20:28;3.90;;;3.89;;
69837;SDS011;57135;51.992;4.476;2022-08-30T01:23:07;3.84;;;3.84;;
69837;SDS011;57135;51.992;4.476;2022-08-30T01:25:36;3.88;;;3.87;;
69837;SDS011;57135;51.992;4.476;2022-08-30T01:28:03;3.94;;;3.92;;
69837;SDS011;57135;51.992;4.476;2022-08-30T01:30:32;3.85;;;3.83;;
69837;SDS011;57135;51.992;4.476;2022-08-30T01:32:59;4.16;;;4.15;;
69837;SDS011;57135;51.992;4.476;2022-08-30T01:35:26;3.79;;;3.79;;
69837;SDS011;57135;51.992;4.476;2022-08-30T01:37:53;3.76;;;3.76;;
69837;SDS011;57135;51.992;4.476;2022-08-30T01:40:19;3.90;;;3.90;;
69837;SDS011;57135;51.992;4.476;2022-08-30T01:42:44;4.03;;;4.03;;
69837;SDS011;57135;51.992;4.476;2022-08-30T01:45:10;4.17;;;4.17;;
69837;SDS011;57135;51.992;4.476;2022-08-30T01:47:36;4.29;;;4.29;;
69837;SDS011;57135;51.992;4.476;2022-08-30T01:50:02;4.28;;;4.28;;
69837;SDS011;57135;51.992;4.476;2022-08-30T01:52:29;4.63;;;4.60;;
69837;SDS011;57135;51.992;4.476;2022-08-30T01:54:54;4.43;;;4.43;;
69837;SDS011;57135;51.992;4.476;2022-08-30T01:57:21;4.44;;;4.44;;
69837;SDS011;57135;51.992;4.476;2022-08-30T01:59:48;4.45;;;4.45;;
69837;SDS011;57135;51.992;4.476;2022-08-30T02:02:15;4.71;;;4.71;;
69837;SDS011;57135;51.992;4.476;2022-08-30T02:04:47;4.99;;;4.99;;
69837;SDS011;57135;51.992;4.476;2022-08-30T02:07:13;4.72;;;4.72;;
69837;SDS011;57135;51.992;4.476;2022-08-30T02:09:38;5.01;;;5.01;;
69837;SDS011;57135;51.992;4.476;2022-08-30T02:12:04;4.56;;;4.56;;
69837;SDS011;57135;51.992;4.476;2022-08-30T02:14:31;4.76;;;4.76;;
69837;SDS011;57135;51.992;4.476;2022-08-30T02:16:58;4.86;;;4.86;;
69837;SDS011;57135;51.992;4.476;2022-08-30T02:19:23;5.22;;;5.22;;
69837;SDS011;57135;51.992;4.476;2022-08-30T02:21:49;5.48;;;5.48;;
69837;SDS011;57135;51.992;4.476;2022-08-30T02:24:14;5.52;;;5.52;;
69837;SDS011;57135;51.992;4.476;2022-08-30T02:26:40;5.57;;;5.57;;
69837;SDS011;57135;51.992;4.476;2022-08-30T02:29:07;5.34;;;5.34;;
69837;SDS011;57135;51.992;4.476;2022-08-30T02:31:32;5.56;;;5.56;;
69837;SDS011;57135;51.992;4.476;2022-08-30T02:33:58;5.30;;;5.30;;
69837;SDS011;57135;51.992;4.476;2022-08-30T02:36:24;5.89;;;5.89;;
69837;SDS011;57135;51.992;4.476;2022-08-30T02:38:49;5.82;;;5.82;;
69837;SDS011;57135;51.992;4.476;2022-08-30T02:41:16;6.05;;;6.05;;
69837;SDS011;57135;51.992;4.476;2022-08-30T02:43:42;6.03;;;6.03;;
69837;SDS011;57135;51.992;4.476;2022-08-30T02:46:08;6.22;;;6.22;;
69837;SDS011;57135;51.992;4.476;2022-08-30T02:48:33;6.15;;;6.15;;
69837;SDS011;57135;51.992;4.476;2022-08-30T02:51:03;6.02;;;6.02;;
69837;SDS011;57135;51.992;4.476;2022-08-30T02:53:30;6.69;;;6.69;;
69837;SDS011;57135;51.992;4.476;2022-08-30T02:55:56;6.80;;;6.80;;
69837;SDS011;57135;51.992;4.476;2022-08-30T02:58:21;6.95;;;6.95;;
69837;SDS011;57135;51.992;4.476;2022-08-30T03:00:47;6.99;;;6.99;;
69837;SDS011;57135;51.992;4.476;2022-08-30T03:03:12;6.72;;;6.72;;
69837;SDS011;57135;51.992;4.476;2022-08-30T03:05:37;7.14;;;7.14;;
69837;SDS011;57135;51.992;4.476;2022-08-30T03:08:03;7.30;;;7.29;;
69837;SDS011;57135;51.992;4.476;2022-08-30T03:10:28;7.17;;;7.17;;
69837;SDS011;57135;51.992;4.476;2022-08-30T03:12:54;7.32;;;7.25;;
69837;SDS011;57135;51.992;4.476;2022-08-30T03:15:20;7.49;;;7.45;;
69837;SDS011;57135;51.992;4.476;2022-08-30T03:17:49;7.60;;;7.47;;
69837;SDS011;57135;51.992;4.476;2022-08-30T03:20:17;7.13;;;7.12;;
69837;SDS011;57135;51.992;4.476;2022-08-30T03:22:42;7.49;;;7.49;;
69837;SDS011;57135;51.992;4.476;2022-08-30T03:25:08;7.49;;;7.49;;
69837;SDS011;57135;51.992;4.476;2022-08-30T03:27:33;7.49;;;7.49;;
69837;SDS011;57135;51.992;4.476;2022-08-30T03:29:59;8.15;;;8.15;;
69837;SDS011;57135;51.992;4.476;2022-08-30T03:32:24;7.96;;;7.96;;
69837;SDS011;57135;51.992;4.476;2022-08-30T03:34:50;8.36;;;8.36;;
69837;SDS011;57135;51.992;4.476;2022-08-30T03:37:15;8.17;;;8.17;;
69837;SDS011;57135;51.992;4.476;2022-08-30T03:39:41;8.52;;;8.52;;
69837;SDS011;57135;51.992;4.476;2022-08-30T03:42:07;8.61;;;8.54;;
69837;SDS011;57135;51.992;4.476;2022-08-30T03:44:32;8.31;;;8.30;;
69837;SDS011;57135;51.992;4.476;2022-08-30T03:46:58;8.51;;;8.51;;
69837;SDS011;57135;51.992;4.476;2022-08-30T03:49:23;8.55;;;8.55;;
69837;SDS011;57135;51.992;4.476;2022-08-30T03:51:49;8.67;;;8.67;;
69837;SDS011;57135;51.992;4.476;2022-08-30T03:54:16;9.17;;;9.12;;
69837;SDS011;57135;51.992;4.476;2022-08-30T03:56:41;8.55;;;8.55;;
69837;SDS011;57135;51.992;4.476;2022-08-30T03:59:07;9.10;;;9.10;;
69837;SDS011;57135;51.992;4.476;2022-08-30T04:01:33;9.45;;;9.45;;
69837;SDS011;57135;51.992;4.476;2022-08-30T04:03:59;9.12;;;9.12;;
69837;SDS011;57135;51.992;4.476;2022-08-30T04:06:24;9.57;;;9.57;;
69837;SDS011;57135;51.992;4.476;2022-08-30T04:08:50;9.60;;;9.56;;
69837;SDS011;57135;51.992;4.476;2022-08-30T04:11:15;9.70;;;9.68;;
69837;SDS011;57135;51.992;4.476;2022-08-30T04:13:41;10.23;;;10.18;;
69837;SDS011;57135;51.992;4.476;2022-08-30T04:16:07;9.82;;;9.77;;
69837;SDS011;57135;51.992;4.476;2022-08-30T04:18:33;10.08;;;10.04;;
69837;SDS011;57135;51.992;4.476;2022-08-30T04:21:00;10.15;;;10.11;;
69837;SDS011;57135;51.992;4.476;2022-08-30T04:23:27;10.10;;;10.08;;
69837;SDS011;57135;51.992;4.476;2022-08-30T04:25:53;10.40;;;10.40;;
69837;SDS011;57135;51.992;4.476;2022-08-30T04:28:19;10.05;;;10.03;;
69837;SDS011;57135;51.992;4.476;2022-08-30T04:30:44;10.18;;;10.18;;
69837;SDS011;57135;51.992;4.476;2022-08-30T04:33:11;10.12;;;10.12;;
69837;SDS011;57135;51.992;4.476;2022-08-30T04:35:40;10.48;;;10.48;;
69837;SDS011;57135;51.992;4.476;2022-08-30T04:38:06;10.71;;;10.70;;
69837;SDS011;57135;51.992;4.476;2022-08-30T04:40:32;10.59;;;10.58;;
69837;SDS011;57135;51.992;4.476;2022-08-30T04:42:57;10.59;;;10.59;;
69837;SDS011;57135;51.992;4.476;2022-08-30T04:45:24;10.86;;;10.86;;
69837;SDS011;57135;51.992;4.476;2022-08-30T04:47:49;10.46;;;10.45;;
69837;SDS011;57135;51.992;4.476;2022-08-30T04:50:16;10.81;;;10.81;;
69837;SDS011;57135;51.992;4.476;2022-08-30T04:52:44;10.98;;;10.87;;
69837;SDS011;57135;51.992;4.476;2022-08-30T04:55:09;11.07;;;10.84;;
69837;SDS011;57135;51.992;4.476;2022-08-30T04:57:36;10.07;;;10.07;;
69837;SDS011;57135;51.992;4.476;2022-08-30T05:00:08;10.67;;;10.67;;
69837;SDS011;57135;51.992;4.476;2022-08-30T05:02:36;10.92;;;10.90;;
69837;SDS011;57135;51.992;4.476;2022-08-30T05:05:02;10.68;;;10.65;;
69837;SDS011;57135;51.992;4.476;2022-08-30T05:07:47;10.69;;;10.69;;
69837;SDS011;57135;51.992;4.476;2022-08-30T05:10:13;10.86;;;10.82;;
69837;SDS011;57135;51.992;4.476;2022-08-30T05:12:39;10.63;;;10.63;;
69837;SDS011;57135;51.992;4.476;2022-08-30T05:15:05;10.65;;;10.65;;
69837;SDS011;57135;51.992;4.476;2022-08-30T05:17:30;10.71;;;10.71;;
69837;SDS011;57135;51.992;4.476;2022-08-30T05:19:56;10.81;;;10.81;;
69837;SDS011;57135;51.992;4.476;2022-08-30T05:22:21;11.07;;;11.07;;
69837;SDS011;57135;51.992;4.476;2022-08-30T05:24:47;10.89;;;10.89;;
69837;SDS011;57135;51.992;4.476;2022-08-30T05:27:13;11.13;;;11.13;;
69837;SDS011;57135;51.992;4.476;2022-08-30T05:29:39;10.65;;;10.65;;
69837;SDS011;57135;51.992;4.476;2022-08-30T05:32:05;10.76;;;10.76;;
69837;SDS011;57135;51.992;4.476;2022-08-30T05:34:30;11.39;;;11.39;;
69837;SDS011;57135;51.992;4.476;2022-08-30T05:36:56;10.91;;;10.90;;
69837;SDS011;57135;51.992;4.476;2022-08-30T05:39:21;10.91;;;10.90;;
69837;SDS011;57135;51.992;4.476;2022-08-30T05:41:46;10.70;;;10.70;;
69837;SDS011;57135;51.992;4.476;2022-08-30T05:44:12;11.06;;;11.05;;
69837;SDS011;57135;51.992;4.476;2022-08-30T05:46:37;11.49;;;11.44;;
69837;SDS011;57135;51.992;4.476;2022-08-30T05:49:04;11.40;;;11.35;;
69837;SDS011;57135;51.992;4.476;2022-08-30T05:51:31;10.86;;;10.86;;
69837;SDS011;57135;51.992;4.476;2022-08-30T05:53:59;11.46;;;11.43;;
69837;SDS011;57135;51.992;4.476;2022-08-30T05:56:26;11.11;;;11.10;;
69837;SDS011;57135;51.992;4.476;2022-08-30T05:58:56;11.21;;;11.20;;
69837;SDS011;57135;51.992;4.476;2022-08-30T06:01:26;11.41;;;11.41;;
69837;SDS011;57135;51.992;4.476;2022-08-30T06:03:54;10.98;;;10.98;;
69837;SDS011;57135;51.992;4.476;2022-08-30T06:06:21;11.26;;;11.26;;
69837;SDS011;57135;51.992;4.476;2022-08-30T06:08:47;11.30;;;11.25;;
69837;SDS011;57135;51.992;4.476;2022-08-30T06:11:14;11.26;;;11.22;;
69837;SDS011;57135;51.992;4.476;2022-08-30T06:13:43;11.08;;;11.08;;
69837;SDS011;57135;51.992;4.476;2022-08-30T06:16:11;11.80;;;11.80;;
69837;SDS011;57135;51.992;4.476;2022-08-30T06:18:38;11.55;;;11.55;;
69837;SDS011;57135;51.992;4.476;2022-08-30T06:21:04;11.34;;;11.33;;
69837;SDS011;57135;51.992;4.476;2022-08-30T06:23:30;11.44;;;11.44;;
69837;SDS011;57135;51.992;4.476;2022-08-30T06:25:55;11.22;;;11.22;;
69837;SDS011;57135;51.992;4.476;2022-08-30T06:28:28;11.09;;;11.09;;
69837;SDS011;57135;51.992;4.476;2022-08-30T06:30:53;11.14;;;11.14;;
69837;SDS011;57135;51.992;4.476;2022-08-30T06:33:19;11.63;;;11.60;;
69837;SDS011;57135;51.992;4.476;2022-08-30T06:35:44;11.32;;;11.32;;
69837;SDS011;57135;51.992;4.476;2022-08-30T06:38:09;11.75;;;11.64;;
69837;SDS011;57135;51.992;4.476;2022-08-30T06:40:35;11.35;;;11.35;;
69837;SDS011;57135;51.992;4.476;2022-08-30T06:43:01;10.93;;;10.93;;
69837;SDS011;57135;51.992;4.476;2022-08-30T06:45:26;10.89;;;10.85;;
69837;SDS011;57135;51.992;4.476;2022-08-30T06:47:51;10.47;;;10.47;;
69837;SDS011;57135;51.992;4.476;2022-08-30T06:50:17;10.03;;;10.03;;
69837;SDS011;57135;51.992;4.476;2022-08-30T06:52:43;10.43;;;10.43;;
69837;SDS011;57135;51.992;4.476;2022-08-30T06:55:12;9.67;;;9.67;;
69837;SDS011;57135;51.992;4.476;2022-08-30T06:57:39;9.70;;;9.70;;
69837;SDS011;57135;51.992;4.476;2022-08-30T07:00:06;9.27;;;9.27;;
69837;SDS011;57135;51.992;4.476;2022-08-30T07:02:35;8.97;;;8.97;;
69837;SDS011;57135;51.992;4.476;2022-08-30T07:05:01;8.89;;;8.89;;
69837;SDS011;57135;51.992;4.476;2022-08-30T07:07:27;8.43;;;8.43;;
69837;SDS011;57135;51.992;4.476;2022-08-30T07:09:52;8.01;;;8.01;;
69837;SDS011;57135;51.992;4.476;2022-08-30T07:12:19;7.47;;;7.47;;
69837;SDS011;57135;51.992;4.476;2022-08-30T07:14:44;7.21;;;7.21;;
69837;SDS011;57135;51.992;4.476;2022-08-30T07:17:10;6.92;;;6.92;;
69837;SDS011;57135;51.992;4.476;2022-08-30T07:20:07;6.89;;;6.89;;
69837;SDS011;57135;51.992;4.476;2022-08-30T07:22:34;6.65;;;6.65;;
69837;SDS011;57135;51.992;4.476;2022-08-30T07:24:59;6.17;;;6.17;;
69837;SDS011;57135;51.992;4.476;2022-08-30T07:27:25;5.94;;;5.94;;
69837;SDS011;57135;51.992;4.476;2022-08-30T07:29:51;5.56;;;5.56;;
69837;SDS011;57135;51.992;4.476;2022-08-30T07:32:16;5.46;;;5.46;;
69837;SDS011;57135;51.992;4.476;2022-08-30T07:34:42;5.17;;;5.17;;
69837;SDS011;57135;51.992;4.476;2022-08-30T07:37:07;4.85;;;4.85;;
69837;SDS011;57135;51.992;4.476;2022-08-30T07:39:33;5.07;;;5.07;;
69837;SDS011;57135;51.992;4.476;2022-08-30T07:41:58;5.13;;;5.13;;
69837;SDS011;57135;51.992;4.476;2022-08-30T07:44:23;4.91;;;4.91;;
69837;SDS011;57135;51.992;4.476;2022-08-30T07:46:49;4.93;;;4.93;;
69837;SDS011;57135;51.992;4.476;2022-08-30T07:49:15;4.20;;;4.20;;
69837;SDS011;57135;51.992;4.476;2022-08-30T07:51:40;3.74;;;3.74;;
69837;SDS011;57135;51.992;4.476;2022-08-30T07:54:06;3.57;;;3.57;;
69837;SDS011;57135;51.992;4.476;2022-08-30T07:56:32;3.38;;;3.38;;
69837;SDS011;57135;51.992;4.476;2022-08-30T07:58:58;3.54;;;3.54;;
69837;SDS011;57135;51.992;4.476;2022-08-30T08:01:23;3.32;;;3.32;;
69837;SDS011;57135;51.992;4.476;2022-08-30T08:03:49;3.07;;;3.07;;
69837;SDS011;57135;51.992;4.476;2022-08-30T08:06:15;3.18;;;3.18;;
69837;SDS011;57135;51.992;4.476;2022-08-30T08:08:43;3.29;;;3.29;;
69837;SDS011;57135;51.992;4.476;2022-08-30T08:11:11;2.98;;;2.98;;
69837;SDS011;57135;51.992;4.476;2022-08-30T08:13:40;3.07;;;3.07;;
69837;SDS011;57135;51.992;4.476;2022-08-30T08:16:06;3.12;;;3.12;;
69837;SDS011;57135;51.992;4.476;2022-08-30T08:18:32;3.16;;;3.16;;
69837;SDS011;57135;51.992;4.476;2022-08-30T08:20:58;3.17;;;3.17;;
69837;SDS011;57135;51.992;4.476;2022-08-30T08:23:24;3.00;;;3.00;;
69837;SDS011;57135;51.992;4.476;2022-08-30T08:25:49;2.95;;;2.95;;
69837;SDS011;57135;51.992;4.476;2022-08-30T08:28:15;2.89;;;2.89;;
69837;SDS011;57135;51.992;4.476;2022-08-30T08:30:40;2.83;;;2.83;;
69837;SDS011;57135;51.992;4.476;2022-08-30T08:33:06;2.50;;;2.50;;
69837;SDS011;57135;51.992;4.476;2022-08-30T08:35:32;2.71;;;2.71;;
69837;SDS011;57135;51.992;4.476;2022-08-30T08:37:58;2.54;;;2.54;;
69837;SDS011;57135;51.992;4.476;2022-08-30T08:40:23;2.48;;;2.48;;
69837;SDS011;57135;51.992;4.476;2022-08-30T08:45:47;2.70;;;2.70;;
69837;SDS011;57135;51.992;4.476;2022-08-30T08:48:27;2.62;;;2.62;;
69837;SDS011;57135;51.992;4.476;2022-08-30T08:50:57;2.53;;;2.53;;
69837;SDS011;57135;51.992;4.476;2022-08-30T08:53:43;2.65;;;2.65;;
69837;SDS011;57135;51.992;4.476;2022-08-30T08:56:15;2.34;;;2.34;;
69837;SDS011;57135;51.992;4.476;2022-08-30T08:58:50;2.17;;;2.17;;
69837;SDS011;57135;51.992;4.476;2022-08-30T09:01:18;2.43;;;2.43;;
69837;SDS011;57135;51.992;4.476;2022-08-30T09:03:48;2.31;;;2.31;;
69837;SDS011;57135;51.992;4.476;2022-08-30T09:09:04;2.32;;;2.32;;
69837;SDS011;57135;51.992;4.476;2022-08-30T09:11:30;2.25;;;2.25;;
69837;SDS011;57135;51.992;4.476;2022-08-30T09:13:57;2.15;;;2.15;;
69837;SDS011;57135;51.992;4.476;2022-08-30T09:19:44;2.27;;;2.26;;
69837;SDS011;57135;51.992;4.476;2022-08-30T09:22:22;2.27;;;2.27;;
69837;SDS011;57135;51.992;4.476;2022-08-30T09:27:40;2.16;;;2.16;;
69837;SDS011;57135;51.992;4.476;2022-08-30T09:30:15;2.18;;;2.18;;
69837;SDS011;57135;51.992;4.476;2022-08-30T09:32:52;2.03;;;2.03;;
69837;SDS011;57135;51.992;4.476;2022-08-30T09:35:20;2.41;;;2.41;;
69837;SDS011;57135;51.992;4.476;2022-08-30T09:37:51;2.33;;;2.33;;
69837;SDS011;57135;51.992;4.476;2022-08-30T09:40:24;2.16;;;2.16;;
69837;SDS011;57135;51.992;4.476;2022-08-30T09:45:31;2.13;;;2.13;;
69837;SDS011;57135;51.992;4.476;2022-08-30T09:48:06;2.44;;;2.44;;
69837;SDS011;57135;51.992;4.476;2022-08-30T09:50:46;2.42;;;2.42;;
69837;SDS011;57135;51.992;4.476;2022-08-30T09:53:20;2.65;;;2.65;;
69837;SDS011;57135;51.992;4.476;2022-08-30T09:55:53;2.67;;;2.67;;
69837;SDS011;57135;51.992;4.476;2022-08-30T10:01:12;2.38;;;2.38;;
69837;SDS011;57135;51.992;4.476;2022-08-30T10:03:49;2.39;;;2.39;;
69837;SDS011;57135;51.992;4.476;2022-08-30T10:17:39;2.07;;;2.07;;
69837;SDS011;57135;51.992;4.476;2022-08-30T10:23:00;2.28;;;2.28;;
69837;SDS011;57135;51.992;4.476;2022-08-30T10:25:44;2.19;;;2.19;;
69837;SDS011;57135;51.992;4.476;2022-08-30T10:28:18;2.49;;;2.49;;
69837;SDS011;57135;51.992;4.476;2022-08-30T10:30:55;2.45;;;2.45;;
69837;SDS011;57135;51.992;4.476;2022-08-30T10:33:27;2.39;;;2.39;;
69837;SDS011;57135;51.992;4.476;2022-08-30T10:36:01;2.34;;;2.34;;
69837;SDS011;57135;51.992;4.476;2022-08-30T10:38:38;2.38;;;2.38;;
69837;SDS011;57135;51.992;4.476;2022-08-30T10:44:00;2.39;;;2.39;;
69837;SDS011;57135;51.992;4.476;2022-08-30T10:48:57;2.32;;;2.32;;
69837;SDS011;57135;51.992;4.476;2022-08-30T10:54:00;2.23;;;2.23;;
69837;SDS011;57135;51.992;4.476;2022-08-30T10:56:33;2.12;;;2.11;;
69837;SDS011;57135;51.992;4.476;2022-08-30T10:59:05;2.07;;;2.07;;
69837;SDS011;57135;51.992;4.476;2022-08-30T11:01:35;1.94;;;1.94;;
69837;SDS011;57135;51.992;4.476;2022-08-30T11:04:31;2.29;;;2.29;;
69837;SDS011;57135;51.992;4.476;2022-08-30T11:07:33;2.10;;;2.10;;
69837;SDS011;57135;51.992;4.476;2022-08-30T11:10:14;2.09;;;2.09;;
69837;SDS011;57135;51.992;4.476;2022-08-30T11:13:08;1.87;;;1.87;;
69837;SDS011;57135;51.992;4.476;2022-08-30T11:15:53;2.05;;;2.05;;
69837;SDS011;57135;51.992;4.476;2022-08-30T11:18:22;1.92;;;1.92;;
69837;SDS011;57135;51.992;4.476;2022-08-30T11:20:50;2.15;;;2.15;;
69837;SDS011;57135;51.992;4.476;2022-08-30T11:23:28;2.04;;;2.04;;
69837;SDS011;57135;51.992;4.476;2022-08-30T11:41:30;2.04;;;2.03;;
69837;SDS011;57135;51.992;4.476;2022-08-30T11:46:59;1.88;;;1.87;;
69837;SDS011;57135;51.992;4.476;2022-08-30T11:49:39;1.90;;;1.89;;
69837;SDS011;57135;51.992;4.476;2022-08-30T11:52:19;1.80;;;1.80;;
69837;SDS011;57135;51.992;4.476;2022-08-30T11:57:26;1.90;;;1.89;;
69837;SDS011;57135;51.992;4.476;2022-08-30T12:00:26;2.08;;;2.08;;
69837;SDS011;57135;51.992;4.476;2022-08-30T12:02:59;2.03;;;2.03;;
69837;SDS011;57135;51.992;4.476;2022-08-30T12:08:04;2.20;;;2.20;;
69837;SDS011;57135;51.992;4.476;2022-08-30T12:10:38;2.22;;;2.22;;
69837;SDS011;57135;51.992;4.476;2022-08-30T12:13:06;2.23;;;2.23;;
69837;SDS011;57135;51.992;4.476;2022-08-30T12:15:52;2.31;;;2.31;;
69837;SDS011;57135;51.992;4.476;2022-08-30T12:18:53;2.15;;;2.15;;
69837;SDS011;57135;51.992;4.476;2022-08-30T12:21:27;2.27;;;2.27;;
69837;SDS011;57135;51.992;4.476;2022-08-30T12:29:04;2.01;;;2.01;;
69837;SDS011;57135;51.992;4.476;2022-08-30T12:31:31;2.21;;;2.21;;
69837;SDS011;57135;51.992;4.476;2022-08-30T12:33:58;2.31;;;2.31;;
69837;SDS011;57135;51.992;4.476;2022-08-30T12:37:08;2.17;;;2.17;;
69837;SDS011;57135;51.992;4.476;2022-08-30T12:39:24;2.04;;;2.04;;
69837;SDS011;57135;51.992;4.476;2022-08-30T12:41:55;2.15;;;2.15;;
69837;SDS011;57135;51.992;4.476;2022-08-30T12:44:26;2.61;;;2.61;;
69837;SDS011;57135;51.992;4.476;2022-08-30T12:46:59;2.26;;;2.26;;
69837;SDS011;57135;51.992;4.476;2022-08-30T12:49:29;2.30;;;2.30;;
69837;SDS011;57135;51.992;4.476;2022-08-30T12:54:42;2.48;;;2.47;;
69837;SDS011;57135;51.992;4.476;2022-08-30T12:57:09;2.34;;;2.33;;
69837;SDS011;57135;51.992;4.476;2022-08-30T12:59:38;2.30;;;2.29;;
69837;SDS011;57135;51.992;4.476;2022-08-30T13:02:15;2.16;;;2.16;;
69837;SDS011;57135;51.992;4.476;2022-08-30T13:04:44;2.14;;;2.14;;
69837;SDS011;57135;51.992;4.476;2022-08-30T13:07:33;2.22;;;2.22;;
69837;SDS011;57135;51.992;4.476;2022-08-30T13:10:01;2.33;;;2.33;;
69837;SDS011;57135;51.992;4.476;2022-08-30T13:12:38;2.54;;;2.53;;
69837;SDS011;57135;51.992;4.476;2022-08-30T13:15:09;2.49;;;2.47;;
69837;SDS011;57135;51.992;4.476;2022-08-30T13:17:37;2.46;;;2.45;;
69837;SDS011;57135;51.992;4.476;2022-08-30T13:22:30;2.44;;;2.43;;
69837;SDS011;57135;51.992;4.476;2022-08-30T13:24:58;2.43;;;2.42;;
69837;SDS011;57135;51.992;4.476;2022-08-30T13:27:24;2.44;;;2.44;;
69837;SDS011;57135;51.992;4.476;2022-08-30T13:29:51;2.52;;;2.52;;
69837;SDS011;57135;51.992;4.476;2022-08-30T13:32:17;2.67;;;2.67;;
69837;SDS011;57135;51.992;4.476;2022-08-30T13:34:43;2.66;;;2.66;;
69837;SDS011;57135;51.992;4.476;2022-08-30T13:37:14;2.69;;;2.69;;
69837;SDS011;57135;51.992;4.476;2022-08-30T13:39:43;2.55;;;2.55;;
69837;SDS011;57135;51.992;4.476;2022-08-30T13:42:12;2.49;;;2.49;;
69837;SDS011;57135;51.992;4.476;2022-08-30T13:44:37;2.69;;;2.69;;
69837;SDS011;57135;51.992;4.476;2022-08-30T13:47:03;2.73;;;2.72;;
69837;SDS011;57135;51.992;4.476;2022-08-30T13:49:31;2.76;;;2.73;;
69837;SDS011;57135;51.992;4.476;2022-08-30T13:52:04;2.89;;;2.87;;
69837;SDS011;57135;51.992;4.476;2022-08-30T13:54:31;2.67;;;2.67;;
69837;SDS011;57135;51.992;4.476;2022-08-30T13:56:57;2.54;;;2.53;;
69837;SDS011;57135;51.992;4.476;2022-08-30T13:59:22;2.85;;;2.84;;
69837;SDS011;57135;51.992;4.476;2022-08-30T14:01:48;2.89;;;2.87;;
69837;SDS011;57135;51.992;4.476;2022-08-30T14:04:15;2.77;;;2.76;;
69837;SDS011;57135;51.992;4.476;2022-08-30T14:06:41;2.89;;;2.86;;
69837;SDS011;57135;51.992;4.476;2022-08-30T14:09:06;2.86;;;2.84;;
69837;SDS011;57135;51.992;4.476;2022-08-30T14:11:32;2.83;;;2.83;;
69837;SDS011;57135;51.992;4.476;2022-08-30T14:13:59;2.74;;;2.74;;
69837;SDS011;57135;51.992;4.476;2022-08-30T14:16:25;2.83;;;2.83;;
69837;SDS011;57135;51.992;4.476;2022-08-30T14:18:50;2.73;;;2.73;;
69837;SDS011;57135;51.992;4.476;2022-08-30T14:21:16;2.75;;;2.75;;
69837;SDS011;57135;51.992;4.476;2022-08-30T14:23:42;2.83;;;2.81;;
69837;SDS011;57135;51.992;4.476;2022-08-30T14:26:19;2.57;;;2.55;;
69837;SDS011;57135;51.992;4.476;2022-08-30T14:28:47;2.76;;;2.75;;
69837;SDS011;57135;51.992;4.476;2022-08-30T14:31:13;2.37;;;2.37;;
69837;SDS011;57135;51.992;4.476;2022-08-30T14:33:38;2.54;;;2.54;;
69837;SDS011;57135;51.992;4.476;2022-08-30T14:36:04;2.47;;;2.47;;
69837;SDS011;57135;51.992;4.476;2022-08-30T14:38:29;2.47;;;2.47;;
69837;SDS011;57135;51.992;4.476;2022-08-30T14:40:55;2.44;;;2.44;;
69837;SDS011;57135;51.992;4.476;2022-08-30T14:43:20;2.61;;;2.61;;
69837;SDS011;57135;51.992;4.476;2022-08-30T14:45:46;2.58;;;2.58;;
69837;SDS011;57135;51.992;4.476;2022-08-30T14:48:11;2.81;;;2.80;;
69837;SDS011;57135;51.992;4.476;2022-08-30T14:50:37;2.77;;;2.77;;
69837;SDS011;57135;51.992;4.476;2022-08-30T14:53:04;2.63;;;2.63;;
69837;SDS011;57135;51.992;4.476;2022-08-30T14:55:30;2.56;;;2.55;;
69837;SDS011;57135;51.992;4.476;2022-08-30T14:57:58;2.63;;;2.63;;
69837;SDS011;57135;51.992;4.476;2022-08-30T15:00:23;2.54;;;2.54;;
69837;SDS011;57135;51.992;4.476;2022-08-30T15:02:49;2.89;;;2.88;;
69837;SDS011;57135;51.992;4.476;2022-08-30T15:05:15;2.43;;;2.42;;
69837;SDS011;57135;51.992;4.476;2022-08-30T15:07:42;2.51;;;2.50;;
69837;SDS011;57135;51.992;4.476;2022-08-30T15:10:08;2.40;;;2.39;;
69837;SDS011;57135;51.992;4.476;2022-08-30T15:12:34;2.46;;;2.45;;
69837;SDS011;57135;51.992;4.476;2022-08-30T15:14:59;2.47;;;2.46;;
69837;SDS011;57135;51.992;4.476;2022-08-30T15:17:25;2.28;;;2.28;;
69837;SDS011;57135;51.992;4.476;2022-08-30T15:19:50;2.29;;;2.29;;
69837;SDS011;57135;51.992;4.476;2022-08-30T15:22:16;2.34;;;2.34;;
69837;SDS011;57135;51.992;4.476;2022-08-30T15:24:42;2.19;;;2.19;;
69837;SDS011;57135;51.992;4.476;2022-08-30T15:27:07;2.48;;;2.47;;
69837;SDS011;57135;51.992;4.476;2022-08-30T15:29:33;2.38;;;2.37;;
69837;SDS011;57135;51.992;4.476;2022-08-30T15:31:59;2.53;;;2.53;;
69837;SDS011;57135;51.992;4.476;2022-08-30T15:34:26;2.43;;;2.43;;
69837;SDS011;57135;51.992;4.476;2022-08-30T15:36:52;2.39;;;2.39;;
69837;SDS011;57135;51.992;4.476;2022-08-30T15:39:18;2.46;;;2.46;;
69837;SDS011;57135;51.992;4.476;2022-08-30T15:41:44;2.77;;;2.77;;
69837;SDS011;57135;51.992;4.476;2022-08-30T15:44:10;2.43;;;2.43;;
69837;SDS011;57135;51.992;4.476;2022-08-30T15:46:38;2.43;;;2.42;;
69837;SDS011;57135;51.992;4.476;2022-08-30T15:49:13;2.02;;;2.01;;
69837;SDS011;57135;51.992;4.476;2022-08-30T15:51:44;2.35;;;2.33;;
69837;SDS011;57135;51.992;4.476;2022-08-30T15:54:12;2.21;;;2.20;;
69837;SDS011;57135;51.992;4.476;2022-08-30T15:56:42;2.34;;;2.34;;
69837;SDS011;57135;51.992;4.476;2022-08-30T15:59:08;2.35;;;2.35;;
69837;SDS011;57135;51.992;4.476;2022-08-30T16:01:35;2.30;;;2.30;;
69837;SDS011;57135;51.992;4.476;2022-08-30T16:04:01;2.27;;;2.27;;